Terminal Aerodrome Forecast
Issued by NWS

Home | Current Version | Previous Version | Text Only | Print | Product List | Glossary On
Versions: 1 2 3 4 5 6 7 8 9 10 11 12 13
000
FTUS46 KLOX 042340
TAFPRB
TAF
KPRB 042340Z 0500/0524 20018G26KT P6SM SKC
     FM050300 20010KT P6SM SKC
     FM050600 29006KT P6SM SKC
     FM051100 VRB03KT P6SM OVC005
     FM051600 VRB03KT P6SM SKC
     FM051800 24008KT P6SM SKC
     FM052100 22020G28KT P6SM SKC=

USA.gov is the U.S. government's official web portal to all federal, state and local government web resources and services.